Time;durP1;ratioP1;P1;durP2;ratioP2;P2;SDS_P1;SDS_P2;PMS_P1;PMS_P2;Temp;Humidity;BMP_temperature;BMP_pressure;BME280_temperature;BME280_humidity;BME280_pressure;Samples;Min_cycle;Max_cycle;Signal;HPM_P1;HPM_P2
2023/09/12 00:01:21;;;;;;;9.35;4.32;;;;;;;19.27;100.00;100262.91;5217184;28;20017;-73
2023/09/12 00:03:51;;;;;;;11.05;4.00;;;;;;;19.33;100.00;100262.47;5215673;28;20022;-73
2023/09/12 00:06:22;;;;;;;13.20;5.20;;;;;;;19.17;100.00;100261.94;5218726;28;20024;-73
2023/09/12 00:08:52;;;;;;;12.30;4.28;;;;;;;19.20;100.00;100264.34;5216269;28;20029;-73
2023/09/12 00:11:25;;;;;;;11.52;4.30;;;;;;;19.32;100.00;100258.13;5216282;28;20104;-73
2023/09/12 00:13:55;;;;;;;10.70;4.25;;;;;;;19.11;100.00;100262.34;5198438;28;20025;-73
2023/09/12 00:16:25;;;;;;;9.40;4.30;;;;;;;19.14;100.00;100264.75;5216798;28;20029;-73
2023/09/12 00:18:56;;;;;;;14.25;4.70;;;;;;;19.00;100.00;100261.47;5217099;28;20083;-73
2023/09/12 00:21:26;;;;;;;9.85;4.80;;;;;;;19.00;100.00;100272.06;5217878;28;20043;-73
2023/09/12 00:23:56;;;;;;;12.00;4.65;;;;;;;19.13;100.00;100268.38;5217821;28;20031;-73
2023/09/12 00:26:27;;;;;;;16.80;5.13;;;;;;;19.17;100.00;100267.25;5218236;28;20580;-73
2023/09/12 00:28:57;;;;;;;11.30;5.28;;;;;;;19.23;100.00;100274.72;5215961;28;20028;-73
2023/09/12 00:31:27;;;;;;;11.38;5.05;;;;;;;19.32;100.00;100271.38;5197579;28;20513;-72
2023/09/12 00:33:58;;;;;;;9.80;4.45;;;;;;;19.28;100.00;100269.91;5218376;28;20033;-73
2023/09/12 00:36:28;;;;;;;6.75;4.68;;;;;;;19.21;100.00;100274.00;5216906;28;20041;-72
2023/09/12 00:38:58;;;;;;;10.63;4.70;;;;;;;19.23;100.00;100281.81;5197777;28;20028;-73
2023/09/12 00:41:29;;;;;;;12.85;4.95;;;;;;;19.22;100.00;100283.63;5193891;28;20039;-72
2023/09/12 00:43:59;;;;;;;9.43;4.38;;;;;;;19.25;100.00;100275.44;5215798;28;20448;-73
2023/09/12 00:46:30;;;;;;;14.45;5.20;;;;;;;19.27;100.00;100281.47;5199212;28;20032;-73
2023/09/12 00:49:02;;;;;;;8.35;4.68;;;;;;;19.27;100.00;100278.81;5217666;28;20078;-73
2023/09/12 00:51:34;;;;;;;10.10;4.60;;;;;;;19.30;100.00;100278.59;5215877;28;20021;-73
2023/09/12 00:54:05;;;;;;;8.85;4.80;;;;;;;19.30;100.00;100277.75;5217447;28;20062;-73
2023/09/12 00:56:36;;;;;;;10.63;4.85;;;;;;;19.30;100.00;100273.28;5214641;28;20033;-73
2023/09/12 00:59:08;;;;;;;12.70;5.05;;;;;;;19.09;100.00;100258.97;5200250;28;20612;-73
2023/09/12 01:01:38;;;;;;;13.30;5.20;;;;;;;19.02;100.00;100263.06;5214503;28;20035;-73
2023/09/12 01:04:10;;;;;;;9.15;4.65;;;;;;;19.13;100.00;100254.31;5199261;28;20021;-73
2023/09/12 01:06:40;;;;;;;10.25;5.05;;;;;;;19.06;100.00;100247.75;5196761;28;20065;-73
2023/09/12 01:09:12;;;;;;;10.20;4.90;;;;;;;18.99;100.00;100244.75;5217329;28;20020;-73
2023/09/12 01:11:43;;;;;;;9.65;4.88;;;;;;;18.85;100.00;100239.66;5213604;28;20025;-73
2023/09/12 01:14:13;;;;;;;13.20;5.18;;;;;;;18.80;100.00;100231.16;5216756;28;20522;-72
2023/09/12 01:16:43;;;;;;;11.75;5.50;;;;;;;18.71;100.00;100235.47;5215120;28;20021;-73
2023/09/12 01:19:15;;;;;;;14.02;5.07;;;;;;;18.66;100.00;100242.94;5216834;28;20044;-71
2023/09/12 01:22:15;;;;;;;12.77;4.90;;;;;;;18.72;100.00;100221.28;5214999;28;20666;-73
2023/09/12 01:25:14;;;;;;;12.48;5.80;;;;;;;18.65;100.00;100217.41;5195733;28;20035;-73
2023/09/12 01:27:51;;;;;;;9.00;5.50;;;;;;;18.58;100.00;100218.81;5213773;28;20036;-73
2023/09/12 01:30:24;;;;;;;10.40;5.72;;;;;;;18.45;100.00;100247.13;5198031;28;20044;-72
2023/09/12 01:32:55;;;;;;;10.55;5.72;;;;;;;18.82;100.00;100276.94;5214243;28;20025;-73
2023/09/12 01:35:26;;;;;;;14.32;5.97;;;;;;;18.90;100.00;100248.09;5216956;28;20029;-73
2023/09/12 01:37:56;;;;;;;15.98;6.03;;;;;;;18.92;100.00;100229.44;5215924;28;20050;-73
2023/09/12 01:40:46;;;;;;;11.82;6.88;;;;;;;18.97;100.00;100222.81;5216358;28;20052;-73
2023/09/12 01:43:19;;;;;;;10.93;6.22;;;;;;;18.96;100.00;100242.31;5213247;28;20029;-73
2023/09/12 01:45:54;;;;;;;12.70;6.32;;;;;;;19.09;100.00;100261.63;5216341;28;20531;-73
2023/09/12 01:48:26;;;;;;;;;;;;;;;19.25;100.00;100267.50;5215443;28;20028;-73
2023/09/12 01:50:57;;;;;;;11.98;6.20;;;;;;;19.23;100.00;100247.34;5214683;28;19917;-73
2023/09/12 01:53:29;;;;;;;13.07;6.50;;;;;;;19.23;100.00;100258.81;5217360;28;20984;-72
2023/09/12 01:56:00;;;;;;;16.30;6.22;;;;;;;19.25;100.00;100274.63;5220594;28;20525;-73
2023/09/12 01:58:31;;;;;;;13.93;6.50;;;;;;;19.24;100.00;100273.75;5202228;28;20035;-73
2023/09/12 02:01:01;;;;;;;10.57;6.75;;;;;;;19.26;100.00;100274.47;5219918;28;20104;-72
2023/09/12 02:03:31;;;;;;;13.57;6.13;;;;;;;19.12;100.00;100271.16;5220187;28;20056;-73
2023/09/12 02:06:02;;;;;;;11.48;6.30;;;;;;;19.08;100.00;100282.97;5220520;28;20668;-73
2023/09/12 02:08:32;;;;;;;13.05;6.75;;;;;;;19.09;100.00;100289.94;5216118;28;20128;-73
2023/09/12 02:11:03;;;;;;;13.00;7.18;;;;;;;19.14;100.00;100271.88;5192110;28;20029;-73
2023/09/12 02:13:33;;;;;;;13.70;6.90;;;;;;;18.89;100.00;100296.72;5218934;28;20036;-73
2023/09/12 02:16:03;;;;;;;15.13;6.25;;;;;;;18.88;100.00;100296.81;5216475;28;20078;-73
2023/09/12 02:18:34;;;;;;;17.35;6.93;;;;;;;18.90;100.00;100289.63;5197507;28;20025;-73
2023/09/12 02:21:04;;;;;;;18.57;7.40;;;;;;;18.94;100.00;100289.25;5215434;28;20116;-73
2023/09/12 02:23:34;;;;;;;10.60;6.70;;;;;;;18.88;100.00;100297.69;5214463;28;20309;-73
2023/09/12 02:26:05;;;;;;;16.23;7.18;;;;;;;18.85;100.00;100295.25;5220124;28;20685;-73
2023/09/12 02:28:35;;;;;;;13.95;6.85;;;;;;;18.84;100.00;100288.28;5215475;28;20028;-74
2023/09/12 02:31:11;;;;;;;14.20;7.28;;;;;;;18.76;100.00;100285.31;5215577;28;20017;-73
2023/09/12 02:33:41;;;;;;;14.25;6.82;;;;;;;18.63;100.00;100285.50;5195478;28;20031;-72
2023/09/12 02:36:12;;;;;;;12.35;6.63;;;;;;;18.59;100.00;100284.03;5216374;28;20025;-73
2023/09/12 02:38:42;;;;;;;15.38;7.05;;;;;;;18.74;100.00;100284.59;5214607;28;20109;-73
2023/09/12 02:41:12;;;;;;;13.65;7.00;;;;;;;18.53;100.00;100284.47;5215619;28;20025;-73
2023/09/12 02:43:43;;;;;;;18.92;7.40;;;;;;;18.32;100.00;100291.34;5194636;28;20588;-73
2023/09/12 02:46:13;;;;;;;11.00;6.13;;;;;;;18.37;100.00;100283.91;5200318;28;20029;-73
2023/09/12 02:48:43;;;;;;;9.27;5.85;;;;;;;18.39;100.00;100292.56;5193790;28;20017;-73
2023/09/12 02:51:13;;;;;;;12.02;6.03;;;;;;;18.45;100.00;100297.41;5213972;28;20032;-72
2023/09/12 02:53:44;;;;;;;12.43;5.97;;;;;;;18.43;100.00;100301.97;5195403;28;20032;-74
2023/09/12 02:56:14;;;;;;;9.20;5.60;;;;;;;18.45;100.00;100289.47;5216491;28;20020;-72
2023/09/12 02:58:48;;;;;;;12.25;5.93;;;;;;;18.22;100.00;100296.41;5218619;28;20128;-73
2023/09/12 03:01:20;;;;;;;14.18;6.35;;;;;;;18.12;100.00;100290.06;5222056;28;20044;-73
2023/09/12 03:03:50;;;;;;;13.63;6.13;;;;;;;18.09;100.00;100290.28;5193559;28;20116;-73
2023/09/12 03:06:20;;;;;;;17.88;6.13;;;;;;;18.07;100.00;100286.91;5216247;28;20104;-73
2023/09/12 03:08:51;;;;;;;11.60;6.10;;;;;;;18.05;100.00;100283.53;5216559;28;20695;-73
2023/09/12 03:11:21;;;;;;;12.83;6.23;;;;;;;18.23;100.00;100287.50;5193600;28;20545;-73
2023/09/12 03:13:51;;;;;;;12.18;5.72;;;;;;;18.28;100.00;100287.19;5207378;28;20267;-73
2023/09/12 03:16:23;;;;;;;13.20;7.30;;;;;;;18.33;100.00;100298.31;5216118;28;20064;-73
2023/09/12 03:18:54;;;;;;;7.75;5.47;;;;;;;18.31;100.00;100302.88;5196615;28;20018;-73
2023/09/12 03:21:24;;;;;;;12.88;6.35;;;;;;;18.28;100.00;100303.94;5215478;28;20537;-72
2023/09/12 03:23:54;;;;;;;13.38;6.60;;;;;;;18.26;100.00;100312.88;5212796;28;20048;-73
2023/09/12 03:26:25;;;;;;;11.98;6.45;;;;;;;18.29;100.00;100312.69;5211218;28;20020;-73
2023/09/12 03:28:55;;;;;;;14.07;6.97;;;;;;;18.31;100.00;100316.94;5211533;28;20037;-73
2023/09/12 03:31:25;;;;;;;20.50;8.90;;;;;;;18.48;100.00;100324.50;5193793;28;20124;-72
2023/09/12 03:33:56;;;;;;;13.38;8.68;;;;;;;18.55;100.00;100309.88;5191879;28;20845;-73
2023/09/12 03:36:26;;;;;;;16.35;9.35;;;;;;;18.82;100.00;100316.69;5217359;28;20033;-73
2023/09/12 03:38:57;;;;;;;14.18;8.43;;;;;;;18.82;100.00;100314.03;5212909;28;20029;-73
2023/09/12 03:41:27;;;;;;;12.40;9.07;;;;;;;18.87;100.00;100317.19;5207056;28;20021;-73
2023/09/12 03:43:57;;;;;;;18.20;9.23;;;;;;;18.99;100.00;100318.06;5213397;28;20029;-73
2023/09/12 03:46:28;;;;;;;16.65;9.20;;;;;;;19.10;100.00;100332.19;5214221;28;20482;-72
2023/09/12 03:48:58;;;;;;;18.75;9.50;;;;;;;19.03;100.00;100324.81;5201216;28;20098;-73
2023/09/12 03:51:29;;;;;;;15.85;9.65;;;;;;;19.16;100.00;100329.16;5211294;28;20028;-73
2023/09/12 03:53:59;;;;;;;13.48;8.85;;;;;;;19.06;100.00;100327.25;5215511;28;20029;-74
2023/09/12 03:56:29;;;;;;;17.55;9.70;;;;;;;19.06;100.00;100337.84;5215007;28;20044;-73
2023/09/12 03:58:59;;;;;;;18.60;9.75;;;;;;;18.98;100.00;100330.50;5213286;28;20097;-73
2023/09/12 04:01:30;;;;;;;16.13;9.85;;;;;;;18.88;100.00;100325.94;5211230;28;20907;-73
2023/09/12 04:04:00;;;;;;;16.30;9.20;;;;;;;18.79;100.00;100322.16;5211064;28;20024;-74
2023/09/12 04:06:30;;;;;;;18.08;8.60;;;;;;;18.73;100.00;100336.81;5212668;28;20021;-73
2023/09/12 04:09:01;;;;;;;12.52;7.90;;;;;;;18.58;100.00;100345.88;5217173;28;20029;-73
2023/09/12 04:11:31;;;;;;;12.53;7.73;;;;;;;18.64;100.00;100342.78;5215422;28;20031;-73
2023/09/12 04:14:01;;;;;;;17.52;9.25;;;;;;;18.64;100.00;100337.47;5211976;28;20272;-73
2023/09/12 04:16:31;;;;;;;16.90;8.73;;;;;;;18.62;100.00;100332.31;5213675;28;20060;-73
2023/09/12 04:19:03;;;;;;;15.40;9.32;;;;;;;18.80;100.00;100337.09;5214629;28;20496;-73
2023/09/12 04:21:33;;;;;;;17.15;9.48;;;;;;;18.65;100.00;100320.66;5211708;28;20100;-73
2023/09/12 04:24:04;;;;;;;12.60;7.93;;;;;;;18.23;100.00;100329.84;5212479;28;20111;-73
2023/09/12 04:26:34;;;;;;;13.00;8.43;;;;;;;18.34;100.00;100339.69;5199062;28;20512;-73
2023/09/12 04:29:04;;;;;;;17.70;8.65;;;;;;;18.34;100.00;100352.94;5215784;28;20577;-73
2023/09/12 04:31:34;;;;;;;15.00;7.63;;;;;;;18.30;100.00;100369.94;5212232;28;20028;-73
2023/09/12 04:34:05;;;;;;;14.68;7.55;;;;;;;18.23;100.00;100376.59;5215160;28;20024;-73
2023/09/12 04:36:35;;;;;;;11.15;7.07;;;;;;;18.21;100.00;100383.81;5214665;28;20032;-73
2023/09/12 04:39:05;;;;;;;12.00;7.50;;;;;;;18.43;100.00;100398.13;5212800;28;20024;-73
2023/09/12 04:41:36;;;;;;;15.23;8.60;;;;;;;18.46;100.00;100415.56;5216386;28;20283;-73
2023/09/12 04:44:06;;;;;;;18.83;10.25;;;;;;;18.63;100.00;100423.16;5195540;28;20478;-73
2023/09/12 04:46:37;;;;;;;18.92;10.88;;;;;;;18.83;100.00;100419.00;5214565;28;20087;-73
2023/09/12 04:49:07;;;;;;;20.92;11.25;;;;;;;18.94;100.00;100427.00;5197110;28;20633;-73
2023/09/12 04:51:38;;;;;;;18.50;12.00;;;;;;;19.09;100.00;100420.59;5196117;28;20067;-74
2023/09/12 04:54:08;;;;;;;22.40;11.95;;;;;;;19.16;100.00;100408.66;5215565;28;20082;-74
2023/09/12 04:56:38;;;;;;;20.55;10.90;;;;;;;19.21;100.00;100414.44;5214742;28;20024;-73
2023/09/12 04:59:09;;;;;;;20.70;12.32;;;;;;;19.36;100.00;100399.22;5220412;28;20028;-74
2023/09/12 05:01:39;;;;;;;22.25;13.48;;;;;;;19.39;100.00;100378.63;5199267;28;20056;-73
2023/09/12 05:04:09;;;;;;;21.25;12.65;;;;;;;19.44;100.00;100373.81;5217695;28;20021;-73
2023/09/12 05:06:39;;;;;;;18.05;11.60;;;;;;;19.57;100.00;100364.00;5219235;28;20476;-74
2023/09/12 05:09:10;;;;;;;22.42;11.77;;;;;;;19.48;100.00;100361.19;5213425;28;20075;-73
2023/09/12 05:11:44;;;;;;;18.38;11.57;;;;;;;19.41;100.00;100360.81;5221276;28;20425;-72
2023/09/12 05:14:14;;;;;;;17.15;11.30;;;;;;;19.47;100.00;100357.69;5217473;28;20021;-73
2023/09/12 05:16:44;;;;;;;21.85;11.30;;;;;;;19.36;100.00;100367.41;5215046;28;20371;-73
2023/09/12 05:19:15;;;;;;;22.27;11.52;;;;;;;19.41;100.00;100360.81;5215460;28;20057;-74
2023/09/12 05:21:45;;;;;;;17.33;11.10;;;;;;;19.45;100.00;100362.25;5214035;28;20099;-74
2023/09/12 05:24:15;;;;;;;16.90;10.43;;;;;;;19.48;100.00;100372.63;5215783;28;20025;-73
2023/09/12 05:26:47;;;;;;;18.58;10.63;;;;;;;19.47;100.00;100355.03;5205707;28;20271;-74
2023/09/12 05:29:17;;;;;;;19.55;11.13;;;;;;;19.50;100.00;100356.59;5214851;28;20414;-73
2023/09/12 05:31:48;;;;;;;18.48;10.65;;;;;;;19.55;100.00;100357.97;5196783;28;20033;-74
2023/09/12 05:34:18;;;;;;;18.08;10.65;;;;;;;19.79;100.00;100365.84;5212232;28;20037;-74
2023/09/12 05:36:48;;;;;;;15.25;10.18;;;;;;;19.77;100.00;100355.34;5196290;28;20028;-74
2023/09/12 05:39:19;;;;;;;20.93;9.77;;;;;;;19.95;100.00;100367.19;5196078;28;20419;-73
2023/09/12 05:41:49;;;;;;;16.25;9.45;;;;;;;19.99;100.00;100368.66;5196958;28;20268;-73
2023/09/12 05:44:19;;;;;;;18.45;9.82;;;;;;;20.18;100.00;100368.97;5215616;28;20021;-73
2023/09/12 05:46:50;;;;;;;14.82;10.30;;;;;;;20.34;100.00;100363.28;5213316;28;20033;-73
2023/09/12 05:49:20;;;;;;;14.35;10.05;;;;;;;20.43;100.00;100357.28;5214365;28;20018;-74
2023/09/12 05:51:50;;;;;;;19.60;10.53;;;;;;;20.45;100.00;100356.16;5196008;28;20037;-73
2023/09/12 05:54:21;;;;;;;15.57;10.02;;;;;;;20.59;100.00;100347.94;5213320;28;20371;-73
2023/09/12 05:56:52;;;;;;;13.25;9.32;;;;;;;20.50;100.00;100356.63;5215534;28;20021;-73
2023/09/12 05:59:23;;;;;;;15.30;10.00;;;;;;;20.47;100.00;100356.88;5213850;28;20040;-73
2023/09/12 06:01:53;;;;;;;15.93;9.25;;;;;;;20.54;100.00;100363.41;5216227;28;20025;-74
2023/09/12 06:04:23;;;;;;;14.20;8.40;;;;;;;20.59;100.00;100358.56;5215112;28;20029;-73
2023/09/12 06:06:54;;;;;;;15.20;9.67;;;;;;;20.76;100.00;100371.34;5216808;28;20579;-73
2023/09/12 06:09:24;;;;;;;12.68;8.27;;;;;;;20.85;100.00;100381.25;5214213;28;20311;-73
2023/09/12 06:11:55;;;;;;;16.88;8.70;;;;;;;20.97;100.00;100390.88;5216180;28;20045;-73
2023/09/12 06:14:25;;;;;;;16.52;9.20;;;;;;;20.92;100.00;100393.09;5214353;28;20453;-73
2023/09/12 06:16:56;;;;;;;17.55;8.85;;;;;;;20.97;100.00;100406.84;5197401;28;20033;-73
2023/09/12 06:19:26;;;;;;;15.68;9.88;;;;;;;20.87;100.00;100406.72;5214464;28;20060;-72
2023/09/12 06:21:57;;;;;;;19.13;9.93;;;;;;;20.96;100.00;100419.28;5216557;28;20544;-73
2023/09/12 06:24:28;;;;;;;15.05;9.25;;;;;;;21.26;100.00;100431.91;5215969;28;20079;-72
2023/09/12 06:26:58;;;;;;;12.57;8.43;;;;;;;21.21;100.00;100428.78;5217293;28;20029;-73
2023/09/12 06:29:28;;;;;;;16.13;9.10;;;;;;;21.20;100.00;100435.91;5213388;28;20039;-71
2023/09/12 06:31:59;;;;;;;12.85;7.47;;;;;;;21.22;100.00;100439.28;5198749;28;20861;-73
2023/09/12 06:34:29;;;;;;;12.18;7.75;;;;;;;21.18;100.00;100447.63;5215267;28;20028;-72
2023/09/12 06:36:59;;;;;;;12.18;8.50;;;;;;;21.18;100.00;100448.47;5216556;28;20571;-73
2023/09/12 06:39:30;;;;;;;16.63;9.43;;;;;;;21.16;100.00;100461.06;5195185;28;20029;-73
2023/09/12 06:42:00;;;;;;;14.55;8.15;;;;;;;21.08;100.00;100473.28;5202591;28;20275;-73
2023/09/12 06:44:30;;;;;;;14.40;9.30;;;;;;;21.17;100.00;100469.84;5218880;28;20024;-73
2023/09/12 06:47:00;;;;;;;12.77;9.52;;;;;;;21.13;100.00;100489.69;5204130;28;20020;-73
2023/09/12 06:49:32;;;;;;;16.10;10.70;;;;;;;20.94;100.00;100492.13;5217073;28;20574;-73
2023/09/12 06:52:02;;;;;;;15.40;9.68;;;;;;;21.07;100.00;100501.66;5202435;28;20028;-73
2023/09/12 06:54:33;;;;;;;17.90;9.88;;;;;;;20.96;100.00;100508.78;5219438;28;20535;-73
2023/09/12 06:57:04;;;;;;;19.70;10.27;;;;;;;20.94;100.00;100521.34;5220397;28;20059;-72
2023/09/12 06:59:34;;;;;;;15.35;10.20;;;;;;;20.88;100.00;100519.19;5218653;28;20025;-73
2023/09/12 07:02:05;;;;;;;18.10;10.00;;;;;;;20.92;100.00;100525.94;5201737;28;20029;-72
2023/09/12 07:04:35;;;;;;;19.52;9.73;;;;;;;20.90;100.00;100518.09;5218866;28;20017;-73
2023/09/12 07:07:05;;;;;;;12.00;6.95;;;;;;;20.96;100.00;100524.75;5202204;28;20035;-72
2023/09/12 07:09:36;;;;;;;15.20;6.88;;;;;;;20.93;100.00;100525.81;5218816;28;20112;-74
2023/09/12 07:12:06;;;;;;;14.38;6.78;;;;;;;20.86;100.00;100521.13;5219030;28;20025;-72
2023/09/12 07:14:37;;;;;;;17.23;7.03;;;;;;;20.82;100.00;100530.25;5197658;28;20025;-73
2023/09/12 07:17:08;;;;;;;15.13;7.18;;;;;;;20.69;100.00;100525.06;5219450;28;20652;-73
2023/09/12 07:19:38;;;;;;;13.02;6.63;;;;;;;20.53;100.00;100526.38;5218754;28;20021;-73
2023/09/12 07:22:09;;;;;;;11.45;6.32;;;;;;;20.45;100.00;100530.59;5218875;28;20107;-73
2023/09/12 07:24:39;;;;;;;15.65;7.35;;;;;;;20.27;100.00;100532.81;5216167;28;20021;-73
2023/09/12 07:27:09;;;;;;;15.13;7.07;;;;;;;20.25;100.00;100518.81;5219466;28;20137;-73
2023/09/12 07:29:40;;;;;;;12.77;6.15;;;;;;;20.11;100.00;100496.94;5217548;28;20021;-72
2023/09/12 07:32:10;;;;;;;13.50;5.37;;;;;;;20.14;100.00;100465.69;5218495;28;20640;-72
2023/09/12 07:34:42;;;;;;;14.45;5.75;;;;;;;19.77;100.00;100461.44;5218772;28;20272;-72
2023/09/12 07:37:13;;;;;;;11.88;5.63;;;;;;;19.70;100.00;100462.03;5218246;28;20441;-72
2023/09/12 07:39:43;;;;;;;12.30;5.77;;;;;;;19.67;100.00;100452.50;5218542;28;20029;-72
2023/09/12 07:42:13;;;;;;;12.73;6.18;;;;;;;19.77;100.00;100442.88;5218148;28;20831;-73
2023/09/12 07:44:43;;;;;;;13.77;6.00;;;;;;;19.95;100.00;100438.00;5217213;28;20025;-72
2023/09/12 07:47:14;;;;;;;18.92;5.80;;;;;;;20.09;100.00;100422.75;5219364;28;20425;-73
2023/09/12 07:49:44;;;;;;;12.13;5.03;;;;;;;20.01;100.00;100403.03;5200158;28;20510;-73
2023/09/12 07:52:15;;;;;;;10.95;5.70;;;;;;;20.10;100.00;100389.94;5200780;28;20027;-73
2023/09/12 07:54:45;;;;;;;10.05;5.75;;;;;;;20.33;100.00;100373.03;5218447;28;20021;-73
2023/09/12 07:57:15;;;;;;;6.73;4.23;;;;;;;21.52;100.00;100362.28;5219387;28;20025;-74
2023/09/12 07:59:45;;;;;;;9.70;4.82;;;;;;;21.63;100.00;100367.59;5218303;28;20333;-73
2023/09/12 08:02:16;;;;;;;7.03;4.63;;;;;;;21.76;100.00;100362.91;5216800;28;20609;-72
2023/09/12 08:04:46;;;;;;;7.53;4.40;;;;;;;21.76;100.00;100354.09;5217686;28;20275;-73
2023/09/12 08:07:17;;;;;;;7.88;4.10;;;;;;;22.65;100.00;100347.13;5217885;28;20686;-73
2023/09/12 08:09:57;;;;;;;8.02;3.92;;;;;;;23.96;100.00;100348.19;5217877;28;20576;-73
2023/09/12 08:12:28;;;;;;;6.70;2.80;;;;;;;24.20;97.86;100350.38;5198802;28;20063;-72
2023/09/12 08:14:59;;;;;;;4.75;2.67;;;;;;;24.39;93.88;100344.94;5217079;28;20033;-73
2023/09/12 08:17:30;;;;;;;4.07;2.45;;;;;;;23.72;94.87;100349.59;5217463;28;20028;-73
2023/09/12 08:20:00;;;;;;;7.80;3.05;;;;;;;23.49;98.91;100348.22;5217920;28;20401;-73
2023/09/12 08:22:30;;;;;;;6.93;2.92;;;;;;;23.39;100.00;100342.06;5217627;28;20021;-73
2023/09/12 08:25:01;;;;;;;5.00;2.72;;;;;;;23.14;100.00;100343.44;5217411;28;20028;-73
2023/09/12 08:27:31;;;;;;;5.43;2.90;;;;;;;22.90;100.00;100342.97;5217629;28;20025;-72
2023/09/12 08:30:03;;;;;;;4.95;2.95;;;;;;;22.17;100.00;100344.25;5218633;28;20075;-73
2023/09/12 08:32:33;;;;;;;6.38;2.90;;;;;;;22.36;100.00;100343.47;5198282;28;20025;-73
2023/09/12 08:35:04;;;;;;;4.80;3.05;;;;;;;22.07;100.00;100337.19;5217884;28;20490;-73
2023/09/12 08:37:35;;;;;;;5.85;3.17;;;;;;;22.05;100.00;100345.31;5217576;28;20036;-73
2023/09/12 08:40:08;;;;;;;6.97;3.37;;;;;;;22.03;100.00;100346.41;5217202;28;20031;-73
2023/09/12 08:42:43;;;;;;;6.53;2.88;;;;;;;21.93;100.00;100349.00;5199287;28;20275;-73
2023/09/12 08:45:15;;;;;;;4.90;2.50;;;;;;;22.00;100.00;100359.97;5201234;28;20028;-72
2023/09/12 08:47:53;;;;;;;4.70;3.20;;;;;;;21.79;100.00;100367.13;5199271;28;20064;-71
2023/09/12 08:50:24;;;;;;;5.45;3.45;;;;;;;21.68;100.00;100377.81;5198462;28;20105;-72
2023/09/12 08:52:54;;;;;;;5.88;2.72;;;;;;;21.67;100.00;100374.34;5217298;28;20024;-73
2023/09/12 08:55:25;;;;;;;6.22;3.15;;;;;;;21.71;100.00;100385.59;5217877;28;20040;-73
2023/09/12 08:57:57;;;;;;;4.57;2.97;;;;;;;21.70;100.00;100391.84;5216777;28;20522;-72
2023/09/12 09:00:28;;;;;;;4.47;2.75;;;;;;;21.76;100.00;100397.50;5216925;28;20035;-72
2023/09/12 09:02:59;;;;;;;5.72;2.92;;;;;;;21.83;100.00;100405.81;5216363;28;20037;-73
2023/09/12 09:05:30;;;;;;;4.57;2.95;;;;;;;22.03;100.00;100411.16;5198546;28;20025;-71
2023/09/12 09:08:03;;;;;;;7.95;2.80;;;;;;;22.23;100.00;100410.28;5218270;28;20036;-72
2023/09/12 09:10:33;;;;;;;4.45;2.80;;;;;;;22.30;100.00;100413.25;5216688;28;20048;-73
2023/09/12 09:13:06;;;;;;;5.00;3.10;;;;;;;22.40;100.00;100422.19;5218276;28;20143;-74
2023/09/12 09:15:37;;;;;;;6.65;3.15;;;;;;;22.65;100.00;100414.59;5215944;28;20486;-73
2023/09/12 09:18:09;;;;;;;7.38;2.95;;;;;;;22.77;100.00;100409.03;5217488;28;20036;-72
2023/09/12 09:20:40;;;;;;;5.57;2.90;;;;;;;22.89;100.00;100413.28;5215912;28;20021;-72
2023/09/12 09:23:11;;;;;;;4.40;2.38;;;;;;;22.92;100.00;100410.34;5217628;28;20024;-73
2023/09/12 09:25:45;;;;;;;3.75;2.65;;;;;;;23.08;100.00;100423.13;5217361;28;20021;-73
2023/09/12 09:28:17;;;;;;;4.20;2.60;;;;;;;23.01;100.00;100430.81;5217908;28;20079;-73
2023/09/12 09:30:51;;;;;;;6.13;2.60;;;;;;;23.00;100.00;100441.66;5198178;28;20033;-72
2023/09/12 09:33:22;;;;;;;6.95;3.03;;;;;;;23.01;100.00;100443.34;5199413;28;20078;-73
2023/09/12 09:36:03;;;;;;;6.65;3.30;;;;;;;22.81;100.00;100439.75;5197563;28;20036;-71
2023/09/12 09:38:37;;;;;;;6.15;3.38;;;;;;;22.93;100.00;100453.81;5216418;28;20025;-73
2023/09/12 09:41:07;;;;;;;6.38;3.38;;;;;;;22.75;100.00;100464.28;5216732;28;20083;-73
2023/09/12 09:43:37;;;;;;;6.15;3.70;;;;;;;22.85;100.00;100454.50;5216175;28;20033;-73
2023/09/12 09:46:15;;;;;;;7.53;3.50;;;;;;;22.92;100.00;100460.13;5218013;28;20035;-73
2023/09/12 09:48:50;;;;;;;6.90;4.18;;;;;;;22.86;100.00;100469.50;5198772;28;20067;-73
2023/09/12 09:51:20;;;;;;;9.07;4.00;;;;;;;22.71;100.00;100465.50;5214701;28;20347;-72
2023/09/12 09:53:52;;;;;;;8.80;4.13;;;;;;;22.79;100.00;100457.69;5216283;28;20044;-73
2023/09/12 09:56:22;;;;;;;9.10;3.65;;;;;;;22.88;100.00;100464.88;5215428;28;20688;-72
2023/09/12 09:58:56;;;;;;;5.63;3.50;;;;;;;22.79;100.00;100481.69;5216900;28;20021;-72
2023/09/12 10:01:29;;;;;;;6.10;3.75;;;;;;;22.98;100.00;100486.28;5214921;28;20021;-72
2023/09/12 10:04:00;;;;;;;7.82;4.38;;;;;;;23.20;100.00;100478.91;5214664;28;20640;-72
2023/09/12 10:06:34;;;;;;;5.82;3.85;;;;;;;23.70;100.00;100475.19;5214647;28;20067;-73
2023/09/12 10:09:09;;;;;;;6.10;3.50;;;;;;;23.72;100.00;100475.91;5216802;28;20024;-72
2023/09/12 10:11:42;;;;;;;6.63;3.83;;;;;;;23.75;100.00;100480.13;5214697;28;21025;-73
2023/09/12 10:14:18;;;;;;;6.70;4.00;;;;;;;23.69;100.00;100475.34;5198060;28;20116;-71
2023/09/12 10:16:49;;;;;;;6.53;3.47;;;;;;;23.63;100.00;100474.09;5217941;28;20025;-73
2023/09/12 10:19:37;;;;;;;8.80;4.28;;;;;;;23.85;100.00;100476.50;5221512;28;20086;-72
2023/09/12 10:22:23;;;;;;;7.03;3.88;;;;;;;24.03;100.00;100480.16;5218277;28;20495;-73
2023/09/12 10:24:56;;;;;;;5.38;3.78;;;;;;;24.21;100.00;100486.44;5218800;28;20032;-72
2023/09/12 10:27:27;;;;;;;6.38;3.75;;;;;;;24.37;100.00;100480.53;5201609;28;20393;-72
2023/09/12 10:29:59;;;;;;;6.72;3.65;;;;;;;24.41;100.00;100476.59;5219201;28;20098;-73
2023/09/12 10:32:32;;;;;;;4.88;3.00;;;;;;;24.56;100.00;100476.00;5218301;28;20029;-72
2023/09/12 10:35:05;;;;;;;5.03;2.78;;;;;;;24.57;97.90;100472.34;5220817;28;20040;-73
2023/09/12 10:37:41;;;;;;;5.07;2.95;;;;;;;24.59;98.84;100486.41;5219060;28;20021;-73
2023/09/12 10:40:12;;;;;;;7.28;3.13;;;;;;;24.73;99.49;100486.78;5216642;28;20605;-72
2023/09/12 10:42:44;;;;;;;6.85;3.65;;;;;;;24.75;95.97;100483.94;5219931;28;20059;-73
2023/09/12 10:45:15;;;;;;;7.93;3.17;;;;;;;24.86;96.22;100483.78;5223639;28;20025;-72
2023/09/12 10:47:46;;;;;;;6.45;3.00;;;;;;;24.75;94.12;100475.94;5219813;28;20111;-73
2023/09/12 10:50:17;;;;;;;6.22;2.78;;;;;;;24.80;92.07;100474.50;5220377;28;20033;-73
2023/09/12 10:52:47;;;;;;;7.65;2.90;;;;;;;24.67;93.62;100478.50;5202616;28;21321;-73
2023/09/12 10:55:18;;;;;;;4.13;2.20;;;;;;;24.89;95.22;100472.78;5220882;28;20075;-73
2023/09/12 10:58:05;;;;;;;4.13;2.22;;;;;;;24.79;90.84;100474.66;5200781;28;20029;-73
2023/09/12 11:00:38;;;;;;;5.68;2.42;;;;;;;24.61;93.59;100473.75;5218741;28;20032;-72
2023/09/12 11:03:27;;;;;;;3.65;2.00;;;;;;;24.49;91.89;100474.88;5216673;28;20071;-73
2023/09/12 11:05:57;;;;;;;3.85;2.38;;;;;;;24.05;90.24;100475.50;5202189;28;20039;-73
2023/09/12 11:08:29;;;;;;;4.30;2.80;;;;;;;23.99;95.26;100486.75;5218166;28;21374;-72
2023/09/12 11:11:20;;;;;;;5.05;3.00;;;;;;;23.96;93.93;100478.19;5219968;28;20028;-72
2023/09/12 11:14:03;;;;;;;5.32;2.90;;;;;;;24.22;93.40;100477.44;5221403;22;20034;-76
2023/09/12 11:16:34;;;;;;;4.68;2.80;;;;;;;24.25;96.78;100482.50;5194766;28;20025;-77
2023/09/12 11:19:14;;;;;;;4.65;2.75;;;;;;;24.32;95.72;100480.97;5197952;28;20080;-76
2023/09/12 11:21:46;;;;;;;7.70;2.83;;;;;;;24.47;96.14;100467.97;5195446;28;20013;-77
2023/09/12 11:24:18;;;;;;;5.68;2.70;;;;;;;24.63;96.42;100471.78;5197923;28;20033;-77
2023/09/12 11:27:02;;;;;;;4.97;2.80;;;;;;;24.79;94.53;100474.66;5177566;28;20487;-77
2023/09/12 11:29:38;;;;;;;4.75;2.63;;;;;;;24.81;95.49;100475.38;5198140;28;20469;-75
2023/09/12 11:32:09;;;;;;;6.00;2.90;;;;;;;24.76;95.65;100478.47;5196764;28;20033;-76